createdAt,value
2018-07-13T00:00:48.794Z,0.00
2018-07-13T00:01:48.789Z,0.00
2018-07-13T00:02:48.785Z,0.00
2018-07-13T00:04:09.785Z,0.00
2018-07-13T00:04:48.775Z,0.00
2018-07-13T00:05:48.772Z,0.00
2018-07-13T00:06:48.764Z,0.00
2018-07-13T00:07:48.756Z,0.00
2018-07-13T00:08:48.754Z,0.00
2018-07-13T00:10:09.761Z,0.00
2018-07-13T00:10:48.744Z,0.00
2018-07-13T00:11:48.739Z,0.00
2018-07-13T00:12:48.734Z,0.00
2018-07-13T00:13:48.731Z,0.00
2018-07-13T00:14:48.725Z,0.00
2018-07-13T00:16:09.724Z,0.00
2018-07-13T00:16:48.715Z,0.00
2018-07-13T00:17:48.712Z,0.00
2018-07-13T00:18:48.709Z,0.00
2018-07-13T00:19:48.700Z,0.00
2018-07-13T00:20:48.696Z,0.00
2018-07-13T00:22:09.698Z,0.00
2018-07-13T00:22:48.685Z,0.00
2018-07-13T00:23:48.679Z,0.00
2018-07-13T00:24:48.674Z,0.00
2018-07-13T00:25:48.672Z,0.00
2018-07-13T00:26:48.663Z,0.00
2018-07-13T00:28:09.666Z,0.00
2018-07-13T00:28:48.655Z,0.00
2018-07-13T00:29:48.652Z,0.00
2018-07-13T00:30:48.648Z,0.00
2018-07-13T00:31:48.650Z,0.00
2018-07-13T00:32:48.634Z,0.00
2018-07-13T00:34:09.638Z,0.00
2018-07-13T00:34:48.624Z,0.00
2018-07-13T00:35:48.619Z,0.00
2018-07-13T00:36:48.616Z,0.00
2018-07-13T00:37:48.610Z,0.00
2018-07-13T00:38:48.605Z,0.00
2018-07-13T00:40:09.606Z,0.00
2018-07-13T00:40:48.607Z,0.00
2018-07-13T00:41:48.589Z,0.00
2018-07-13T00:42:48.590Z,0.00
2018-07-13T00:43:48.578Z,0.00
2018-07-13T00:44:48.578Z,0.00
2018-07-13T00:46:09.579Z,0.00
2018-07-13T00:46:48.565Z,0.00
2018-07-13T00:47:48.559Z,0.00
2018-07-13T00:48:48.556Z,0.00
2018-07-13T00:49:48.550Z,0.00
2018-07-13T00:50:48.546Z,0.00
2018-07-13T00:52:09.546Z,0.00
2018-07-13T00:52:48.534Z,0.00
2018-07-13T00:53:48.531Z,0.00
2018-07-13T00:54:48.526Z,0.00
2018-07-13T00:55:48.520Z,0.00
2018-07-13T00:56:48.525Z,0.00
2018-07-13T00:58:09.529Z,0.00
2018-07-13T00:58:48.508Z,0.00
2018-07-13T00:59:48.510Z,0.00
2018-07-13T01:00:48.496Z,0.00
2018-07-13T01:01:48.491Z,0.00
2018-07-13T01:02:48.484Z,0.00
2018-07-13T01:04:09.489Z,0.00
2018-07-13T01:04:48.481Z,0.00
2018-07-13T01:05:48.471Z,0.00
2018-07-13T01:06:48.467Z,0.00
2018-07-13T01:07:48.461Z,0.00
2018-07-13T01:08:48.457Z,0.00
2018-07-13T01:10:09.459Z,0.00
2018-07-13T01:10:48.447Z,0.00
2018-07-13T01:11:48.441Z,0.00
2018-07-13T01:12:48.434Z,0.00
2018-07-13T01:13:48.432Z,0.00
2018-07-13T01:14:48.426Z,0.00
2018-07-13T01:16:09.426Z,0.00
2018-07-13T01:16:48.416Z,0.00
2018-07-13T01:17:48.416Z,0.00
2018-07-13T01:18:48.412Z,0.00
2018-07-13T01:19:48.400Z,0.00
2018-07-13T01:20:48.396Z,0.00
2018-07-13T01:22:09.399Z,0.00
2018-07-13T01:22:48.388Z,0.00
2018-07-13T01:23:48.380Z,0.00
2018-07-13T01:24:48.376Z,0.00
2018-07-13T01:25:48.369Z,0.00
2018-07-13T01:26:48.367Z,0.00
2018-07-13T01:28:09.377Z,0.00
2018-07-13T01:28:48.358Z,0.00
2018-07-13T01:29:48.353Z,0.00
2018-07-13T01:30:48.346Z,0.00
2018-07-13T01:31:48.343Z,0.00
2018-07-13T01:32:48.338Z,0.00
2018-07-13T01:34:09.338Z,0.00
2018-07-13T01:34:48.327Z,0.00
2018-07-13T01:35:48.330Z,0.00
2018-07-13T01:36:48.315Z,0.00
2018-07-13T01:37:48.312Z,0.00
2018-07-13T01:38:48.307Z,0.00
2018-07-13T01:40:09.305Z,0.00
2018-07-13T01:40:48.301Z,0.00
2018-07-13T01:41:48.290Z,0.00
2018-07-13T01:42:48.286Z,0.00
2018-07-13T01:43:48.281Z,0.00
2018-07-13T01:44:48.277Z,0.00
2018-07-13T01:46:09.277Z,0.00
2018-07-13T01:46:48.265Z,0.00
2018-07-13T01:47:48.258Z,0.00
2018-07-13T01:48:48.255Z,0.00
2018-07-13T01:49:48.250Z,0.00
2018-07-13T01:50:48.245Z,0.00
2018-07-13T01:52:09.248Z,0.00
2018-07-13T01:52:48.234Z,0.00
2018-07-13T01:53:48.230Z,0.00
2018-07-13T01:54:48.228Z,0.00
2018-07-13T01:55:48.242Z,0.00
2018-07-13T01:56:48.214Z,0.00
2018-07-13T01:58:09.221Z,0.00
2018-07-13T01:58:48.223Z,0.00
2018-07-13T01:59:48.201Z,0.00
2018-07-13T02:00:48.195Z,0.00
2018-07-13T02:01:48.190Z,0.00
2018-07-13T02:02:48.185Z,0.00
2018-07-13T02:04:09.189Z,0.00
2018-07-13T02:04:48.190Z,0.00
2018-07-13T02:05:48.170Z,0.00
2018-07-13T02:06:48.170Z,0.00
2018-07-13T02:07:48.162Z,0.00
2018-07-13T02:08:48.155Z,0.00
2018-07-13T02:10:09.158Z,0.00
2018-07-13T02:10:48.146Z,0.00
2018-07-13T02:11:48.138Z,0.00
2018-07-13T02:12:48.134Z,0.00
2018-07-13T02:13:48.131Z,0.00
2018-07-13T02:14:48.125Z,0.00
2018-07-13T02:16:09.124Z,0.00
2018-07-13T02:16:48.114Z,0.00
2018-07-13T02:17:48.170Z,0.00
2018-07-13T02:18:48.105Z,0.00
2018-07-13T02:19:48.097Z,0.00
2018-07-13T02:20:48.096Z,0.00
2018-07-13T02:22:09.096Z,0.00
2018-07-13T02:22:48.084Z,0.00
2018-07-13T02:23:48.079Z,0.00
2018-07-13T02:24:48.075Z,0.00
2018-07-13T02:25:48.069Z,0.00
2018-07-13T02:26:48.066Z,0.00
2018-07-13T02:28:09.091Z,0.00
2018-07-13T02:28:48.071Z,0.00
2018-07-13T02:29:48.048Z,0.00
2018-07-13T02:30:48.073Z,0.00
2018-07-13T02:31:48.036Z,0.00
2018-07-13T02:32:48.034Z,0.00
2018-07-13T02:34:09.035Z,0.00
2018-07-13T02:34:48.028Z,0.00
2018-07-13T02:35:48.017Z,0.00
2018-07-13T02:36:48.023Z,0.00
2018-07-13T02:37:48.008Z,0.00
2018-07-13T02:38:48.004Z,0.00
2018-07-13T02:40:09.004Z,0.00
2018-07-13T02:40:47.993Z,0.00
2018-07-13T02:41:47.988Z,0.00
2018-07-13T02:42:47.985Z,0.00
2018-07-13T02:43:47.979Z,0.00
2018-07-13T02:44:47.976Z,0.00
2018-07-13T02:46:08.975Z,0.00
2018-07-13T02:46:47.965Z,0.00
2018-07-13T02:47:47.958Z,0.00
2018-07-13T02:48:47.952Z,0.00
2018-07-13T02:49:47.949Z,0.00
2018-07-13T02:50:47.944Z,0.00
2018-07-13T02:52:08.945Z,0.00
2018-07-13T02:52:47.933Z,0.00
2018-07-13T02:53:47.927Z,0.00
2018-07-13T02:54:47.922Z,0.00
2018-07-13T02:55:47.924Z,0.00
2018-07-13T02:56:47.911Z,0.00
2018-07-13T02:58:08.916Z,0.00
2018-07-13T02:58:47.905Z,0.00
2018-07-13T02:59:47.899Z,0.00
2018-07-13T03:00:47.898Z,0.00
2018-07-13T03:01:47.892Z,0.00
2018-07-13T03:02:47.882Z,0.00
2018-07-13T03:04:08.887Z,0.00
2018-07-13T03:04:47.872Z,0.00
2018-07-13T03:05:47.869Z,0.00
2018-07-13T03:06:47.862Z,0.00
2018-07-13T03:07:47.859Z,0.00
2018-07-13T03:08:47.852Z,0.00
2018-07-13T03:10:08.859Z,0.00
2018-07-13T03:10:47.845Z,0.00
2018-07-13T03:11:47.838Z,0.00
2018-07-13T03:12:47.833Z,0.00
2018-07-13T03:13:47.826Z,0.00
2018-07-13T03:14:47.822Z,0.00
2018-07-13T03:16:08.822Z,0.00
2018-07-13T03:16:47.811Z,0.00
2018-07-13T03:17:47.807Z,0.00
2018-07-13T03:18:47.802Z,0.00
2018-07-13T03:19:47.795Z,0.00
2018-07-13T03:20:47.791Z,0.00
2018-07-13T03:22:08.826Z,0.00
2018-07-13T03:22:47.781Z,0.00
2018-07-13T03:23:47.774Z,0.00
2018-07-13T03:24:47.770Z,0.00
2018-07-13T03:25:47.766Z,0.00
2018-07-13T03:26:47.764Z,0.00
2018-07-13T03:28:08.762Z,0.00
2018-07-13T03:28:47.749Z,0.00
2018-07-13T03:29:47.746Z,0.00
2018-07-13T03:30:47.742Z,0.00
2018-07-13T03:31:47.735Z,0.00
2018-07-13T03:32:47.729Z,0.00
2018-07-13T03:34:08.733Z,0.00
2018-07-13T03:34:47.719Z,0.00
2018-07-13T03:35:47.725Z,0.00
2018-07-13T03:36:47.711Z,0.00
2018-07-13T03:37:47.706Z,0.00
2018-07-13T03:38:47.703Z,8.00
2018-07-13T03:40:08.700Z,16.00
2018-07-13T03:40:47.688Z,24.00
2018-07-13T03:41:47.688Z,16.00
2018-07-13T03:42:47.680Z,16.00
2018-07-13T03:43:47.673Z,20.00
2018-07-13T03:44:47.671Z,20.00
2018-07-13T03:46:08.669Z,24.00
2018-07-13T03:46:47.657Z,24.00
2018-07-13T03:47:47.649Z,24.00
2018-07-13T03:48:47.645Z,28.00
2018-07-13T03:49:47.638Z,28.00
2018-07-13T03:50:47.632Z,28.00
2018-07-13T03:52:08.637Z,32.00
2018-07-13T03:52:47.620Z,32.00
2018-07-13T03:53:47.616Z,32.00
2018-07-13T03:54:47.610Z,36.00
2018-07-13T03:55:47.602Z,36.00
2018-07-13T03:56:47.598Z,40.00
2018-07-13T03:58:08.598Z,40.00
2018-07-13T03:58:47.587Z,40.00
2018-07-13T03:59:47.582Z,44.00
2018-07-13T04:00:47.575Z,44.00
2018-07-13T04:01:47.602Z,48.00
2018-07-13T04:02:47.559Z,52.00
2018-07-13T04:04:08.559Z,56.00
2018-07-13T04:04:47.548Z,56.00
2018-07-13T04:05:47.542Z,60.00
2018-07-13T04:06:47.535Z,64.00
2018-07-13T04:07:47.533Z,64.00
2018-07-13T04:08:47.524Z,72.00
2018-07-13T04:10:08.523Z,76.00
2018-07-13T04:10:47.511Z,76.00
2018-07-13T04:11:47.508Z,84.00
2018-07-13T04:12:47.497Z,84.00
2018-07-13T04:13:47.491Z,92.00
2018-07-13T04:14:47.489Z,96.00
2018-07-13T04:16:08.483Z,100.00
2018-07-13T04:16:47.472Z,100.00
2018-07-13T04:17:47.466Z,108.00
2018-07-13T04:18:47.463Z,108.00
2018-07-13T04:19:47.453Z,116.00
2018-07-13T04:20:47.575Z,116.00
2018-07-13T04:22:08.446Z,120.00
2018-07-13T04:22:47.435Z,124.00
2018-07-13T04:23:47.435Z,124.00
2018-07-13T04:24:47.423Z,128.00
2018-07-13T04:25:47.415Z,128.00
2018-07-13T04:26:47.408Z,132.00
2018-07-13T04:28:08.409Z,136.00
2018-07-13T04:28:47.435Z,136.00
2018-07-13T04:29:47.388Z,140.00
2018-07-13T04:30:47.383Z,144.00
2018-07-13T04:31:47.374Z,144.00
2018-07-13T04:32:47.370Z,148.00
2018-07-13T04:34:08.416Z,148.00
2018-07-13T04:34:47.356Z,152.00
2018-07-13T04:35:47.348Z,156.00
2018-07-13T04:36:47.345Z,156.00
2018-07-13T04:37:47.337Z,156.00
2018-07-13T04:38:47.330Z,160.00
2018-07-13T04:40:08.329Z,160.00
2018-07-13T04:40:47.362Z,164.00
2018-07-13T04:41:47.310Z,168.00
2018-07-13T04:42:47.304Z,172.00
2018-07-13T04:43:47.297Z,176.00
2018-07-13T04:44:47.290Z,180.00
2018-07-13T04:46:08.290Z,184.00
2018-07-13T04:46:47.278Z,188.00
2018-07-13T04:47:47.271Z,192.00
2018-07-13T04:48:47.265Z,196.00
2018-07-13T04:49:47.257Z,200.00
2018-07-13T04:50:47.251Z,200.00
2018-07-13T04:52:08.251Z,200.00
2018-07-13T04:52:47.238Z,204.00
2018-07-13T04:53:47.232Z,204.00
2018-07-13T04:54:47.228Z,204.00
2018-07-13T04:55:47.220Z,204.00
2018-07-13T04:56:47.211Z,204.00
2018-07-13T04:58:08.214Z,200.00
2018-07-13T04:58:47.199Z,204.00
2018-07-13T04:59:47.194Z,204.00
2018-07-13T05:00:47.186Z,208.00
2018-07-13T05:01:47.186Z,208.00
2018-07-13T05:02:47.174Z,212.00
2018-07-13T05:04:08.170Z,216.00
2018-07-13T05:04:47.160Z,216.00
2018-07-13T05:05:47.153Z,220.00
2018-07-13T05:06:47.148Z,224.00
2018-07-13T05:07:47.140Z,228.00
2018-07-13T05:08:47.139Z,236.00
2018-07-13T05:10:08.134Z,240.00
2018-07-13T05:10:47.121Z,248.00
2018-07-13T05:11:47.114Z,248.00
2018-07-13T05:12:47.107Z,252.00
2018-07-13T05:13:47.100Z,252.00
2018-07-13T05:14:47.094Z,256.00
2018-07-13T05:16:08.092Z,260.00
2018-07-13T05:16:47.081Z,264.00
2018-07-13T05:17:47.079Z,268.00
2018-07-13T05:18:47.069Z,276.00
2018-07-13T05:19:47.060Z,284.00
2018-07-13T05:20:47.054Z,288.00
2018-07-13T05:22:08.054Z,304.00
2018-07-13T05:22:47.047Z,312.00
2018-07-13T05:23:47.034Z,316.00
2018-07-13T05:24:47.028Z,328.00
2018-07-13T05:25:47.020Z,336.00
2018-07-13T05:26:47.020Z,348.00
2018-07-13T05:28:08.016Z,384.00
2018-07-13T05:28:47.005Z,436.00
2018-07-13T05:29:46.997Z,396.00
2018-07-13T05:30:47.048Z,396.00
2018-07-13T05:31:46.982Z,388.00
2018-07-13T05:32:46.977Z,392.00
2018-07-13T05:34:07.978Z,404.00
2018-07-13T05:34:46.965Z,408.00
2018-07-13T05:35:46.967Z,412.00
2018-07-13T05:36:46.950Z,416.00
2018-07-13T05:37:46.946Z,436.00
2018-07-13T05:38:46.939Z,428.00
2018-07-13T05:40:07.937Z,428.00
2018-07-13T05:40:46.924Z,428.00
2018-07-13T05:41:46.923Z,432.00
2018-07-13T05:42:46.912Z,436.00
2018-07-13T05:43:46.902Z,444.00
2018-07-13T05:44:46.898Z,452.00
2018-07-13T05:46:07.903Z,464.00
2018-07-13T05:46:46.885Z,472.00
2018-07-13T05:47:46.879Z,476.00
2018-07-13T05:48:46.872Z,480.00
2018-07-13T05:49:46.980Z,488.00
2018-07-13T05:50:46.860Z,488.00
2018-07-13T05:52:07.859Z,480.00
2018-07-13T05:52:46.846Z,484.00
2018-07-13T05:53:46.838Z,488.00
2018-07-13T05:54:46.835Z,492.00
2018-07-13T05:55:46.829Z,496.00
2018-07-13T05:56:46.819Z,500.00
2018-07-13T05:58:07.822Z,504.00
2018-07-13T05:58:46.807Z,508.00
2018-07-13T05:59:46.801Z,516.00
2018-07-13T06:00:46.794Z,524.00
2018-07-13T06:01:46.788Z,540.00
2018-07-13T06:02:46.784Z,564.00
2018-07-13T06:04:07.783Z,584.00
2018-07-13T06:04:46.767Z,600.00
2018-07-13T06:05:46.761Z,624.00
2018-07-13T06:06:46.755Z,612.00
2018-07-13T06:07:46.748Z,628.00
2018-07-13T06:08:46.742Z,648.00
2018-07-13T06:10:07.743Z,684.00
2018-07-13T06:10:46.730Z,788.00
2018-07-13T06:11:46.724Z,792.00
2018-07-13T06:12:46.716Z,720.00
2018-07-13T06:13:46.710Z,712.00
2018-07-13T06:14:46.768Z,716.00
2018-07-13T06:16:07.701Z,756.00
2018-07-13T06:16:46.690Z,772.00
2018-07-13T06:17:46.689Z,744.00
2018-07-13T06:18:46.678Z,852.00
2018-07-13T06:19:46.670Z,864.00
2018-07-13T06:20:46.668Z,852.00
2018-07-13T06:22:07.666Z,832.00
2018-07-13T06:22:46.655Z,872.00
2018-07-13T06:23:46.645Z,900.00
2018-07-13T06:24:46.638Z,836.00
2018-07-13T06:25:46.636Z,828.00
2018-07-13T06:26:46.641Z,828.00
2018-07-13T06:28:07.625Z,876.00
2018-07-13T06:28:46.615Z,892.00
2018-07-13T06:29:46.609Z,920.00
2018-07-13T06:30:46.601Z,976.00
2018-07-13T06:31:46.594Z,932.00
2018-07-13T06:32:46.588Z,976.00
2018-07-13T06:34:07.589Z,996.00
2018-07-13T06:34:46.579Z,968.00
2018-07-13T06:35:46.569Z,980.00
2018-07-13T06:36:46.561Z,912.00
2018-07-13T06:37:46.560Z,924.00
2018-07-13T06:38:46.549Z,960.00
2018-07-13T06:40:07.546Z,1116.00
2018-07-13T06:40:46.536Z,1108.00
2018-07-13T06:41:46.530Z,1024.00
2018-07-13T06:42:46.527Z,1168.00
2018-07-13T06:43:46.516Z,1000.00
2018-07-13T06:44:46.568Z,956.00
2018-07-13T06:46:07.512Z,1068.00
2018-07-13T06:46:46.497Z,980.00
2018-07-13T06:47:46.490Z,952.00
2018-07-13T06:48:46.484Z,944.00
2018-07-13T06:49:46.478Z,924.00
2018-07-13T06:50:46.489Z,900.00
2018-07-13T06:52:07.473Z,896.00
2018-07-13T06:52:46.459Z,924.00
2018-07-13T06:53:46.453Z,932.00
2018-07-13T06:54:46.445Z,972.00
2018-07-13T06:55:46.444Z,1016.00
2018-07-13T06:56:46.467Z,1076.00
2018-07-13T06:58:07.435Z,1184.00
2018-07-13T06:58:46.420Z,1156.00
2018-07-13T06:59:46.413Z,1084.00
2018-07-13T07:00:46.406Z,1016.00
2018-07-13T07:01:46.403Z,1032.00
2018-07-13T07:02:46.398Z,980.00
2018-07-13T07:04:07.396Z,952.00
2018-07-13T07:04:46.386Z,980.00
2018-07-13T07:05:46.377Z,932.00
2018-07-13T07:06:46.371Z,944.00
2018-07-13T07:07:46.367Z,908.00
2018-07-13T07:08:46.386Z,912.00
2018-07-13T07:10:07.360Z,908.00
2018-07-13T07:10:46.346Z,916.00
2018-07-13T07:11:46.338Z,924.00
2018-07-13T07:12:46.333Z,972.00
2018-07-13T07:13:46.326Z,1060.00
2018-07-13T07:14:46.321Z,976.00
2018-07-13T07:16:07.322Z,1000.00
2018-07-13T07:16:46.307Z,1004.00
2018-07-13T07:17:46.407Z,1120.00
2018-07-13T07:18:46.302Z,1336.00
2018-07-13T07:19:46.288Z,1188.00
2018-07-13T07:20:46.281Z,1144.00
2018-07-13T07:22:07.284Z,1152.00
2018-07-13T07:22:46.271Z,1124.00
2018-07-13T07:23:46.265Z,1044.00
2018-07-13T07:24:46.257Z,1288.00
2018-07-13T07:25:46.251Z,1400.00
2018-07-13T07:26:46.245Z,1392.00
2018-07-13T07:28:07.243Z,1284.00
2018-07-13T07:28:46.232Z,1468.00
2018-07-13T07:29:46.226Z,1324.00
2018-07-13T07:30:46.254Z,1092.00
2018-07-13T07:31:46.213Z,1136.00
2018-07-13T07:32:46.206Z,1496.00
2018-07-13T07:34:07.208Z,1540.00
2018-07-13T07:34:46.195Z,1504.00
2018-07-13T07:35:46.188Z,1428.00
2018-07-13T07:36:46.182Z,1452.00
2018-07-13T07:37:46.180Z,1544.00
2018-07-13T07:38:46.170Z,1528.00
2018-07-13T07:40:07.169Z,1584.00
2018-07-13T07:40:46.157Z,1604.00
2018-07-13T07:41:46.160Z,1624.00
2018-07-13T07:42:46.144Z,1636.00
2018-07-13T07:43:46.141Z,1652.00
2018-07-13T07:44:46.132Z,1664.00
2018-07-13T07:46:07.136Z,1672.00
2018-07-13T07:46:46.122Z,1660.00
2018-07-13T07:47:46.173Z,1456.00
2018-07-13T07:48:46.107Z,1236.00
2018-07-13T07:49:46.104Z,1364.00
2018-07-13T07:50:46.097Z,1528.00
2018-07-13T07:52:07.097Z,1684.00
2018-07-13T07:52:46.085Z,1716.00
2018-07-13T07:53:46.079Z,1776.00
2018-07-13T07:54:46.072Z,1788.00
2018-07-13T07:55:46.067Z,1796.00
2018-07-13T07:56:46.059Z,1800.00
2018-07-13T07:58:07.058Z,1808.00
2018-07-13T07:58:46.049Z,1836.00
2018-07-13T07:59:46.041Z,1868.00
2018-07-13T08:00:46.033Z,1876.00
2018-07-13T08:01:46.092Z,1892.00
2018-07-13T08:02:46.030Z,1912.00
2018-07-13T08:04:07.024Z,1928.00
2018-07-13T08:04:46.012Z,1948.00
2018-07-13T08:05:46.007Z,1964.00
2018-07-13T08:06:46.263Z,1980.00
2018-07-13T08:07:45.994Z,1992.00
2018-07-13T08:08:45.989Z,2016.00
2018-07-13T08:10:06.992Z,2028.00
2018-07-13T08:10:45.977Z,2040.00
2018-07-13T08:11:45.971Z,2056.00
2018-07-13T08:12:45.965Z,2080.00
2018-07-13T08:13:45.998Z,2092.00
2018-07-13T08:14:45.967Z,2104.00
2018-07-13T08:16:06.959Z,2112.00
2018-07-13T08:16:45.956Z,2132.00
2018-07-13T08:17:45.938Z,2112.00
2018-07-13T08:18:45.932Z,2124.00
2018-07-13T08:19:45.924Z,2124.00
2018-07-13T08:20:45.920Z,2112.00
2018-07-13T08:22:06.918Z,2148.00
2018-07-13T08:22:45.908Z,2156.00
2018-07-13T08:23:45.901Z,2172.00
2018-07-13T08:24:45.903Z,2196.00
2018-07-13T08:25:45.891Z,2204.00
2018-07-13T08:26:45.914Z,2200.00
2018-07-13T08:28:06.883Z,2216.00
2018-07-13T08:28:45.871Z,2232.00
2018-07-13T08:29:45.869Z,2240.00
2018-07-13T08:30:45.861Z,2252.00
2018-07-13T08:31:45.853Z,2256.00
2018-07-13T08:32:45.849Z,2272.00
2018-07-13T08:34:06.850Z,2288.00
2018-07-13T08:34:45.837Z,2296.00
2018-07-13T08:35:45.831Z,2300.00
2018-07-13T08:36:45.826Z,2304.00
2018-07-13T08:37:45.829Z,2288.00
2018-07-13T08:38:45.815Z,2296.00
2018-07-13T08:40:06.814Z,2300.00
2018-07-13T08:40:45.803Z,2316.00
2018-07-13T08:41:45.797Z,2316.00
2018-07-13T08:42:45.793Z,2324.00
2018-07-13T08:43:45.790Z,2328.00
2018-07-13T08:44:45.781Z,2336.00
2018-07-13T08:46:06.780Z,2332.00
2018-07-13T08:46:45.769Z,2348.00
2018-07-13T08:47:45.762Z,2392.00
2018-07-13T08:48:45.758Z,2400.00
2018-07-13T08:49:45.756Z,2408.00
2018-07-13T08:50:45.747Z,2412.00
2018-07-13T08:52:06.749Z,2412.00
2018-07-13T08:52:45.737Z,2428.00
2018-07-13T08:53:45.731Z,2436.00
2018-07-13T08:54:45.724Z,2440.00
2018-07-13T08:55:45.720Z,2448.00
2018-07-13T08:56:45.714Z,2464.00
2018-07-13T08:58:06.718Z,2468.00
2018-07-13T08:58:45.707Z,2480.00
2018-07-13T08:59:45.752Z,2476.00
2018-07-13T09:00:45.692Z,2492.00
2018-07-13T09:01:45.828Z,2492.00
2018-07-13T09:02:45.684Z,2488.00
2018-07-13T09:04:06.691Z,2500.00
2018-07-13T09:04:45.713Z,2516.00
2018-07-13T09:05:45.705Z,2536.00
2018-07-13T09:06:45.661Z,2556.00
2018-07-13T09:07:45.656Z,2568.00
2018-07-13T09:08:45.649Z,2572.00
2018-07-13T09:10:06.653Z,2588.00
2018-07-13T09:10:45.643Z,2596.00
2018-07-13T09:11:45.692Z,2604.00
2018-07-13T09:12:45.627Z,2612.00
2018-07-13T09:13:45.624Z,2612.00
2018-07-13T09:14:45.618Z,2620.00
2018-07-13T09:16:06.619Z,2608.00
2018-07-13T09:16:45.608Z,2636.00
2018-07-13T09:17:45.605Z,2656.00
2018-07-13T09:18:45.600Z,2644.00
2018-07-13T09:19:45.593Z,2656.00
2018-07-13T09:20:45.585Z,2676.00
2018-07-13T09:22:06.589Z,2688.00
2018-07-13T09:22:45.576Z,2708.00
2018-07-13T09:23:45.571Z,2728.00
2018-07-13T09:24:45.565Z,2732.00
2018-07-13T09:25:45.560Z,2752.00
2018-07-13T09:26:45.579Z,2768.00
2018-07-13T09:28:06.554Z,2776.00
2018-07-13T09:28:45.544Z,2764.00
2018-07-13T09:29:45.539Z,2816.00
2018-07-13T09:30:45.565Z,2820.00
2018-07-13T09:31:45.529Z,2748.00
2018-07-13T09:32:45.556Z,2800.00
2018-07-13T09:34:06.527Z,2812.00
2018-07-13T09:34:45.514Z,2544.00
2018-07-13T09:35:45.512Z,1768.00
2018-07-13T09:36:45.503Z,1580.00
2018-07-13T09:37:45.497Z,1880.00
2018-07-13T09:38:45.493Z,2628.00
2018-07-13T09:40:06.494Z,2736.00
2018-07-13T09:40:45.483Z,2892.00
2018-07-13T09:41:45.481Z,2884.00
2018-07-13T09:42:45.474Z,2844.00
2018-07-13T09:43:45.466Z,2900.00
2018-07-13T09:44:45.462Z,2908.00
2018-07-13T09:46:06.465Z,2940.00
2018-07-13T09:46:45.512Z,2952.00
2018-07-13T09:47:45.447Z,2972.00
2018-07-13T09:48:45.442Z,2996.00
2018-07-13T09:49:45.438Z,2984.00
2018-07-13T09:50:45.437Z,2972.00
2018-07-13T09:52:06.433Z,2956.00
2018-07-13T09:52:45.422Z,2956.00
2018-07-13T09:53:45.473Z,2960.00
2018-07-13T09:54:45.412Z,2980.00
2018-07-13T09:55:45.405Z,2140.00
2018-07-13T09:56:45.402Z,1404.00
2018-07-13T09:58:06.423Z,2488.00
2018-07-13T09:58:45.396Z,2808.00
2018-07-13T09:59:45.390Z,2936.00
2018-07-13T10:00:45.403Z,2976.00
2018-07-13T10:01:45.377Z,2936.00
2018-07-13T10:02:45.372Z,2944.00
2018-07-13T10:04:06.376Z,2956.00
2018-07-13T10:04:45.363Z,2976.00
2018-07-13T10:05:45.358Z,2984.00
2018-07-13T10:06:45.354Z,2964.00
2018-07-13T10:07:45.348Z,2940.00
2018-07-13T10:08:45.343Z,2940.00
2018-07-13T10:10:06.346Z,2912.00
2018-07-13T10:10:45.332Z,2916.00
2018-07-13T10:11:45.328Z,2904.00
2018-07-13T10:12:45.323Z,2948.00
2018-07-13T10:13:45.318Z,1512.00
2018-07-13T10:14:45.316Z,1404.00
2018-07-13T10:16:06.314Z,1380.00
2018-07-13T10:16:45.306Z,2764.00
2018-07-13T10:17:45.299Z,2940.00
2018-07-13T10:18:45.296Z,2924.00
2018-07-13T10:19:45.289Z,2940.00
2018-07-13T10:20:45.347Z,2952.00
2018-07-13T10:22:06.286Z,2920.00
2018-07-13T10:22:45.279Z,2908.00
2018-07-13T10:23:45.269Z,2932.00
2018-07-13T10:24:45.267Z,2960.00
2018-07-13T10:25:45.262Z,2952.00
2018-07-13T10:26:45.258Z,2936.00
2018-07-13T10:28:06.255Z,2916.00
2018-07-13T10:28:45.250Z,2852.00
2018-07-13T10:29:45.246Z,2840.00
2018-07-13T10:30:45.259Z,2816.00
2018-07-13T10:31:45.230Z,2808.00
2018-07-13T10:32:45.225Z,2840.00
2018-07-13T10:34:06.228Z,2816.00
2018-07-13T10:34:45.218Z,2800.00
2018-07-13T10:35:45.211Z,2796.00
2018-07-13T10:36:45.212Z,2768.00
2018-07-13T10:37:45.300Z,2768.00
2018-07-13T10:38:45.199Z,2752.00
2018-07-13T10:40:06.198Z,2756.00
2018-07-13T10:40:45.188Z,2756.00
2018-07-13T10:41:45.187Z,2748.00
2018-07-13T10:42:45.180Z,2740.00
2018-07-13T10:43:45.172Z,2732.00
2018-07-13T10:44:45.170Z,2660.00
2018-07-13T10:46:06.173Z,2672.00
2018-07-13T10:46:45.161Z,2644.00
2018-07-13T10:47:45.209Z,2636.00
2018-07-13T10:48:45.152Z,2612.00
2018-07-13T10:49:45.146Z,2556.00
2018-07-13T10:50:45.143Z,2580.00
2018-07-13T10:52:06.144Z,2564.00
2018-07-13T10:52:45.132Z,2516.00
2018-07-13T10:53:45.129Z,2524.00
2018-07-13T10:54:45.124Z,2536.00
2018-07-13T10:55:45.119Z,2544.00
2018-07-13T10:56:45.115Z,2520.00
2018-07-13T10:58:06.119Z,2524.00
2018-07-13T10:58:45.156Z,2508.00
2018-07-13T10:59:45.103Z,2480.00
2018-07-13T11:00:45.098Z,2472.00
2018-07-13T11:01:45.090Z,2456.00
2018-07-13T11:02:45.128Z,2452.00
2018-07-13T11:04:06.088Z,2452.00
2018-07-13T11:04:45.078Z,2460.00
2018-07-13T11:05:45.074Z,2440.00
2018-07-13T11:06:45.070Z,2432.00
2018-07-13T11:07:45.064Z,2408.00
2018-07-13T11:08:45.061Z,2388.00
2018-07-13T11:10:06.061Z,2348.00
2018-07-13T11:10:45.051Z,2316.00
2018-07-13T11:11:45.050Z,2292.00
2018-07-13T11:12:45.040Z,2292.00
2018-07-13T11:13:45.085Z,2280.00
2018-07-13T11:14:45.031Z,2240.00
2018-07-13T11:16:06.032Z,2204.00
2018-07-13T11:16:45.026Z,2204.00
2018-07-13T11:17:45.017Z,2172.00
2018-07-13T11:18:45.015Z,2124.00
2018-07-13T11:19:45.008Z,2112.00
2018-07-13T11:20:45.002Z,2156.00
2018-07-13T11:22:06.006Z,2192.00
2018-07-13T11:22:44.996Z,2192.00
2018-07-13T11:23:44.993Z,2192.00
2018-07-13T11:24:44.984Z,2160.00
2018-07-13T11:25:44.979Z,2148.00
2018-07-13T11:26:44.975Z,2136.00
2018-07-13T11:28:05.976Z,2124.00
2018-07-13T11:28:44.966Z,2104.00
2018-07-13T11:29:44.988Z,2096.00
2018-07-13T11:30:44.955Z,2088.00
2018-07-13T11:31:44.952Z,2084.00
2018-07-13T11:32:44.947Z,2076.00
2018-07-13T11:34:05.951Z,2068.00
2018-07-13T11:34:44.950Z,2056.00
2018-07-13T11:35:44.934Z,2044.00
2018-07-13T11:36:44.963Z,2024.00
2018-07-13T11:37:45.010Z,1992.00
2018-07-13T11:38:44.939Z,1984.00
2018-07-13T11:40:05.923Z,1968.00
2018-07-13T11:40:44.909Z,1956.00
2018-07-13T11:41:44.976Z,1932.00
2018-07-13T11:42:44.901Z,1896.00
2018-07-13T11:43:44.924Z,1872.00
2018-07-13T11:44:44.894Z,1860.00
2018-07-13T11:46:05.901Z,1844.00
2018-07-13T11:46:44.883Z,1836.00
2018-07-13T11:47:44.873Z,1828.00
2018-07-13T11:48:44.874Z,1812.00
2018-07-13T11:49:44.867Z,1800.00
2018-07-13T11:50:44.864Z,1788.00
2018-07-13T11:52:05.877Z,1772.00
2018-07-13T11:52:44.853Z,1756.00
2018-07-13T11:53:44.849Z,1740.00
2018-07-13T11:54:44.848Z,1728.00
2018-07-13T11:55:44.838Z,1720.00
2018-07-13T11:56:44.839Z,1712.00
2018-07-13T11:58:05.840Z,1680.00
2018-07-13T11:58:44.839Z,1664.00
2018-07-13T11:59:44.820Z,1644.00
2018-07-13T12:00:44.817Z,1624.00
2018-07-13T12:01:44.861Z,1600.00
2018-07-13T12:02:44.808Z,1564.00
2018-07-13T12:04:05.813Z,1536.00
2018-07-13T12:04:44.816Z,1516.00
2018-07-13T12:05:44.794Z,1496.00
2018-07-13T12:06:44.790Z,1484.00
2018-07-13T12:07:44.990Z,1464.00
2018-07-13T12:08:44.779Z,1448.00
2018-07-13T12:10:05.783Z,1440.00
2018-07-13T12:10:44.771Z,1440.00
2018-07-13T12:11:44.767Z,1432.00
2018-07-13T12:12:44.794Z,1408.00
2018-07-13T12:13:44.757Z,1392.00
2018-07-13T12:14:44.752Z,1376.00
2018-07-13T12:16:05.753Z,1356.00
2018-07-13T12:16:44.822Z,1336.00
2018-07-13T12:17:44.822Z,1316.00
2018-07-13T12:18:44.735Z,1304.00
2018-07-13T12:19:44.744Z,1280.00
2018-07-13T12:20:44.724Z,1264.00
2018-07-13T12:22:05.726Z,1252.00
2018-07-13T12:22:44.715Z,1244.00
2018-07-13T12:23:44.746Z,1224.00
2018-07-13T12:24:44.707Z,1216.00
2018-07-13T12:25:44.699Z,1208.00
2018-07-13T12:26:44.695Z,1192.00
2018-07-13T12:28:05.697Z,1180.00
2018-07-13T12:28:44.686Z,1168.00
2018-07-13T12:29:44.682Z,1152.00
2018-07-13T12:30:44.676Z,1144.00
2018-07-13T12:31:44.675Z,1140.00
2018-07-13T12:32:44.667Z,1128.00